Time;durP1;ratioP1;P1;durP2;ratioP2;P2;SDS_P1;SDS_P2;PMS_P1;PMS_P2;Temp;Humidity;BMP_temperature;BMP_pressure;BME280_temperature;BME280_humidity;BME280_pressure;Samples;Min_cycle;Max_cycle;Signal;HPM_P1;HPM_P2
2022/11/19 00:00:05;;;;;;;;;;;;;;;6.60;46.47;94548.19;5064606;28;20015;-66
2022/11/19 00:02:30;;;;;;;;;;;;;;;6.53;47.30;94548.06;5066539;28;19995;-66
2022/11/19 00:04:55;;;;;;;;;;;;;;;6.46;48.30;94545.28;5066545;28;19972;-68
2022/11/19 00:07:20;;;;;;;;;;;;;;;6.36;47.63;94555.31;5065748;28;20000;-66
2022/11/19 00:09:45;;;;;;;;;;;;;;;6.38;47.46;94553.31;5063080;28;20552;-67
2022/11/19 00:14:54;;;;;;;;;;;;;;;6.28;47.46;94550.06;5075926;28;20007;-68
2022/11/19 00:17:20;;;;;;;;;;;;;;;5.91;51.55;94558.59;5084029;28;19988;-66
2022/11/19 00:19:45;;;;;;;;;;;;;;;6.10;49.30;94556.50;5087011;28;19982;-67
2022/11/19 00:22:10;;;;;;;;;;;;;;;6.10;48.56;94557.31;5083133;28;20040;-66
2022/11/19 00:24:35;;;;;;;;;;;;;;;6.09;48.34;94553.00;5083903;28;19976;-66
2022/11/19 00:27:01;;;;;;;;;;;;;;;5.90;49.11;94549.03;5083649;28;20058;-67
2022/11/19 00:29:26;;;;;;;;;;;;;;;5.74;49.73;94556.03;5084284;28;19991;-66
2022/11/19 00:31:51;;;;;;;;;;;;;;;5.48;52.00;94565.06;5085717;28;20045;-67
2022/11/19 00:34:16;;;;;;;;;;;;;;;5.66;49.47;94552.63;5085631;28;20411;-67
2022/11/19 00:36:42;;;;;;;;;;;;;;;5.63;49.65;94553.78;5085053;28;20469;-68
2022/11/19 00:39:07;;;;;;;;;;;;;;;5.58;48.17;94549.03;5083564;28;20371;-66
2022/11/19 00:41:32;;;;;;;;;;;;;;;5.59;47.32;94557.78;5085126;28;20266;-65
2022/11/19 00:43:57;;;;;;;;;;;;;;;5.43;46.92;94554.22;5082068;28;19980;-66
2022/11/19 00:46:26;;;;;;;;;;;;;;;5.41;46.50;94548.28;5085647;28;19992;-67
2022/11/19 00:48:52;;;;;;;;;;;;;;;5.42;46.11;94549.09;5084251;28;20379;-66
2022/11/19 00:51:18;;;;;;;;;;;;;;;5.27;45.98;94549.00;5085490;28;19988;-67
2022/11/19 00:53:43;;;;;;;;;;;;;;;5.24;45.94;94551.97;5089122;28;20471;-67
2022/11/19 00:56:09;;;;;;;;;;;;;;;5.16;46.49;94558.09;5087935;28;20034;-67
2022/11/19 00:58:34;;;;;;;;;;;;;;;5.09;46.47;94555.31;5085580;28;20509;-67
2022/11/19 01:01:00;;;;;;;;;;;;;;;5.00;46.87;94553.69;5084224;28;19965;-67
2022/11/19 01:03:25;;;;;;;;;;;;;;;5.05;46.81;94554.81;5086707;28;19992;-66
2022/11/19 01:05:50;;;;;;;;;;;;;;;5.03;47.73;94556.00;5088220;28;19992;-66
2022/11/19 01:08:15;;;;;;;;;;;;;;;4.96;46.84;94554.00;5087749;28;20598;-67
2022/11/19 01:10:42;;;;;;;;;;;;;;;4.93;48.54;94559.63;5090806;28;20053;-65
2022/11/19 01:15:51;;;;;;;;;;;;;;;4.78;48.26;94556.84;5089059;28;20007;-66
2022/11/19 01:18:16;;;;;;;;;;;;;;;4.75;49.25;94565.09;5089388;28;19992;-66
2022/11/19 01:20:41;;;;;;;;;;;;;;;4.70;49.01;94560.31;5087554;28;20258;-67
2022/11/19 01:23:07;;;;;;;;;;;;;;;4.68;46.08;94559.69;5088593;28;20040;-66
2022/11/19 01:25:32;;;;;;;;;;;;;;;4.63;49.16;94561.97;5087366;28;20045;-66
2022/11/19 01:27:57;;;;;;;;;;;;;;;4.35;47.93;94569.41;5090278;28;20037;-65
2022/11/19 01:30:22;;;;;;;;;;;;;;;4.40;45.25;94565.31;5088596;28;20014;-66
2022/11/19 01:32:48;;;;;;;;;;;;;;;4.45;47.14;94570.06;5087268;28;20268;-67
2022/11/19 01:35:13;;;;;;;;;;;;;;;4.44;48.99;94569.25;5090691;28;19992;-66
2022/11/19 01:37:38;;;;;;;;;;;;;;;4.31;47.56;94569.75;5086786;28;19997;-65
2022/11/19 01:40:04;;;;;;;;;;;;;;;4.19;46.41;94569.22;5085567;28;20500;-67
2022/11/19 01:42:48;;;;;;;;;;;;;;;4.24;49.28;94567.91;5085209;28;20492;-66
2022/11/19 01:45:32;;;;;;;;;;;;;;;4.18;47.71;94572.84;5088684;28;19983;-65
2022/11/19 01:48:07;;;;;;;;;;;;;;;4.18;45.87;94578.13;5089071;28;20387;-66
2022/11/19 01:50:33;;;;;;;;;;;;;;;4.11;46.47;94584.22;5086711;28;20000;-66
2022/11/19 01:52:58;;;;;;;;;;;;;;;3.85;49.08;94582.53;5067292;28;19966;-67
2022/11/19 01:55:24;;;;;;;;;;;;;;;3.81;48.96;94582.00;5085705;28;20476;-66
2022/11/19 01:57:51;;;;;;;;;;;;;;;3.83;46.91;94582.69;5070806;28;20535;-67
2022/11/19 02:00:17;;;;;;;;;;;;;;;3.62;47.93;94589.22;5087326;28;20444;-66
2022/11/19 02:02:42;;;;;;;;;;;;;;;3.43;48.05;94593.72;5088319;28;19999;-66
2022/11/19 02:05:07;;;;;;;;;;;;;;;3.52;48.01;94585.88;5084443;28;19973;-66
2022/11/19 02:07:32;;;;;;;;;;;;;;;3.51;46.55;94584.25;5087338;28;20045;-67
2022/11/19 02:09:58;;;;;;;;;;;;;;;3.40;49.61;94588.78;5068720;28;20003;-66
2022/11/19 02:12:23;;;;;;;;;;;;;;;3.39;50.13;94588.91;5089326;28;19975;-67
2022/11/19 02:14:57;;;;;;;;;;;;;;;3.46;48.99;94591.78;5086877;28;20097;-67
2022/11/19 02:17:26;;;;;;;;;;;;;;;3.43;49.98;94595.53;5087802;28;19991;-66
2022/11/19 02:19:59;;;;;;;;;;;;;;;3.40;48.82;94593.19;5087509;28;20400;-67
2022/11/19 02:22:43;;;;;;;;;;;;;;;3.43;52.33;94595.53;5088978;28;20443;-66
2022/11/19 02:25:11;;;;;;;;;;;;;;;3.33;48.68;94600.09;5082940;28;20063;-65
2022/11/19 02:27:42;;;;;;;;;;;;;;;3.37;47.89;94599.59;5070143;28;19975;-65
2022/11/19 02:30:08;;;;;;;;;;;;;;;3.40;47.92;94595.81;5084189;28;20448;-67
2022/11/19 02:33:00;;;;;;;;;;;;;;;3.25;47.83;94595.59;5086926;28;19991;-67
2022/11/19 02:35:44;;;;;;;;;;;;;;;3.21;49.65;94599.53;5065038;28;20501;-66
2022/11/19 02:38:12;;;;;;;;;;;;;;;3.13;49.85;94598.50;5083992;28;19992;-66
2022/11/19 02:40:39;;;;;;;;;;;;;;;3.07;48.59;94604.41;5084832;28;20267;-66
2022/11/19 02:43:18;;;;;;;;;;;;;;;2.99;49.14;94602.53;5065229;28;20418;-66
2022/11/19 02:45:45;;;;;;;;;;;;;;;3.10;50.85;94598.00;5063424;28;20207;-66
2022/11/19 02:48:11;;;;;;;;;;;;;;;3.17;49.26;94605.09;5067309;28;20027;-66
2022/11/19 02:50:56;;;;;;;;;;;;;;;3.09;47.39;94610.31;5071071;28;20134;-66
2022/11/19 02:53:22;;;;;;;;;;;;;;;3.19;47.67;94612.03;5085040;28;19961;-66
2022/11/19 02:56:09;;;;;;;;;;;;;;;3.10;48.98;94603.28;5085247;28;20447;-68
2022/11/19 03:06:45;;;;;;;;;;;;;;;2.98;48.20;94611.41;5085062;28;19999;-66
2022/11/19 03:09:10;;;;;;;;;;;;;;;2.87;47.59;94609.03;5087333;28;19976;-68
2022/11/19 03:11:36;;;;;;;;;;;;;;;2.74;47.10;94615.53;5067586;28;20369;-67
2022/11/19 03:17:20;;;;;;;;;;;;;;;2.71;45.98;94620.25;5070034;28;20446;-65
2022/11/19 03:19:47;;;;;;;;;;;;;;;2.81;48.43;94628.88;5066799;28;20025;-66
2022/11/19 03:22:18;;;;;;;;;;;;;;;2.64;47.91;94623.53;5067302;28;20079;-66
2022/11/19 03:24:44;;;;;;;;;;;;;;;2.58;48.14;94624.13;5086650;28;19975;-68
2022/11/19 03:27:16;;;;;;;;;;;;;;;2.48;45.00;94626.00;5066250;28;20395;-68
2022/11/19 03:29:45;;;;;;;;;;;;;;;2.52;48.38;94622.13;5085222;28;20019;-67
2022/11/19 03:32:16;;;;;;;;;;;;;;;2.51;49.41;94626.53;5068056;28;19927;-66
2022/11/19 03:34:41;;;;;;;;;;;;;;;2.36;45.56;94610.50;5067236;28;19996;-67
2022/11/19 03:37:07;;;;;;;;;;;;;;;2.35;46.74;94610.66;5066085;28;20491;-66
2022/11/19 03:39:33;;;;;;;;;;;;;;;2.38;48.72;94613.78;5085204;28;20037;-66
2022/11/19 03:41:58;;;;;;;;;;;;;;;2.46;48.62;94622.72;5066001;28;20331;-67
2022/11/19 03:44:35;;;;;;;;;;;;;;;2.41;49.90;94625.78;5085471;28;20005;-67
2022/11/19 03:47:05;;;;;;;;;;;;;;;2.51;45.51;94625.69;5068905;28;20007;-66
2022/11/19 03:49:32;;;;;;;;;;;;;;;2.46;48.97;94627.97;5067051;28;19999;-66
2022/11/19 03:52:02;;;;;;;;;;;;;;;2.47;50.36;94630.44;5088815;28;19972;-67
2022/11/19 03:54:27;;;;;;;;;;;;;;;2.48;49.44;94633.88;5084772;28;20205;-66
2022/11/19 03:56:52;;;;;;;;;;;;;;;2.38;46.71;94631.34;5085690;28;19984;-67
2022/11/19 03:59:17;;;;;;;;;;;;;;;2.10;46.13;94631.41;5067778;28;20314;-67
2022/11/19 04:01:43;;;;;;;;;;;;;;;2.14;49.13;94627.50;5085730;28;19996;-67
2022/11/19 04:06:52;;;;;;;;;;;;;;;1.99;48.21;94645.59;5088499;28;20020;-66
2022/11/19 04:09:17;;;;;;;;;;;;;;;2.05;49.40;94637.13;5082830;28;19972;-67
2022/11/19 04:11:43;;;;;;;;;;;;;;;2.05;46.51;94642.38;5085611;28;19984;-67
2022/11/19 04:14:08;;;;;;;;;;;;;;;2.14;49.10;94641.47;5085134;28;19992;-66
2022/11/19 04:16:33;;;;;;;;;;;;;;;2.19;47.41;94642.84;5086765;28;19997;-66
2022/11/19 04:18:58;;;;;;;;;;;;;;;2.17;49.11;94642.16;5086982;28;19996;-66
2022/11/19 04:21:24;;;;;;;;;;;;;;;2.02;46.60;94642.66;5068626;28;20467;-67
2022/11/19 04:23:49;;;;;;;;;;;;;;;2.04;45.40;94642.53;5084444;28;20377;-65
2022/11/19 04:26:14;;;;;;;;;;;;;;;2.01;46.81;94648.91;5086838;28;19993;-65
2022/11/19 04:28:39;;;;;;;;;;;;;;;1.91;47.03;94648.13;5087808;28;20456;-67
2022/11/19 04:31:05;;;;;;;;;;;;;;;1.90;46.84;94649.91;5089720;28;20062;-67
2022/11/19 04:33:30;;;;;;;;;;;;;;;1.65;49.23;94652.28;5087463;28;20010;-65
2022/11/19 04:35:55;;;;;;;;;;;;;;;1.89;46.40;94650.91;5090198;28;20033;-66
2022/11/19 04:38:20;;;;;;;;;;;;;;;1.95;50.22;94650.31;5088958;28;20242;-66
2022/11/19 04:40:46;;;;;;;;;;;;;;;2.01;49.15;94647.09;5088879;28;19984;-66
2022/11/19 04:43:11;;;;;;;;;;;;;;;2.05;49.36;94646.78;5088660;28;20014;-67
2022/11/19 04:45:36;;;;;;;;;;;;;;;2.07;48.25;94648.28;5087729;28;20054;-67
2022/11/19 04:48:01;;;;;;;;;;;;;;;2.05;47.07;94652.06;5088071;28;19977;-67
2022/11/19 04:50:27;;;;;;;;;;;;;;;1.94;48.41;94656.53;5088240;28;20087;-67
2022/11/19 04:52:52;;;;;;;;;;;;;;;1.98;50.58;94654.44;5090564;28;19972;-66
2022/11/19 04:55:17;;;;;;;;;;;;;;;1.96;49.56;94670.34;5089535;28;19992;-66
2022/11/19 04:57:42;;;;;;;;;;;;;;;1.94;51.87;94664.41;5088233;28;20008;-66
2022/11/19 05:00:08;;;;;;;;;;;;;;;1.99;51.39;94658.72;5088646;28;19976;-67
2022/11/19 05:02:33;;;;;;;;;;;;;;;1.81;46.23;94666.56;5088278;28;20010;-66
2022/11/19 05:04:58;;;;;;;;;;;;;;;1.80;48.86;94665.72;5087912;28;20319;-67
2022/11/19 05:07:23;;;;;;;;;;;;;;;1.82;51.64;94674.28;5087778;28;20003;-67
2022/11/19 05:09:49;;;;;;;;;;;;;;;1.90;48.59;94670.91;5087971;28;20106;-67
2022/11/19 05:12:14;;;;;;;;;;;;;;;2.00;50.54;94676.94;5089466;28;20444;-67
2022/11/19 05:14:39;;;;;;;;;;;;;;;1.87;48.86;94671.22;5089529;28;20461;-66
2022/11/19 05:17:04;;;;;;;;;;;;;;;1.77;45.91;94671.25;5085747;28;20389;-67
2022/11/19 05:19:30;;;;;;;;;;;;;;;1.81;49.15;94672.63;5087785;28;20066;-67
2022/11/19 05:21:55;;;;;;;;;;;;;;;1.89;49.76;94666.66;5087602;28;19994;-66
2022/11/19 05:24:20;;;;;;;;;;;;;;;1.88;48.33;94672.88;5090708;28;19976;-65
2022/11/19 05:26:45;;;;;;;;;;;;;;;1.85;50.29;94670.53;5089667;28;20049;-65
2022/11/19 05:29:11;;;;;;;;;;;;;;;1.74;45.53;94666.31;5086033;28;19968;-67
2022/11/19 05:31:36;;;;;;;;;;;;;;;1.72;45.64;94673.50;5086069;28;19963;-66
2022/11/19 05:34:01;;;;;;;;;;;;;;;1.73;47.29;94678.63;5087659;28;20003;-67
2022/11/19 05:36:26;;;;;;;;;;;;;;;1.68;47.72;94678.22;5090444;28;20013;-66
2022/11/19 05:38:51;;;;;;;;;;;;;;;1.55;47.06;94677.72;5088371;28;19996;-67
2022/11/19 05:41:17;;;;;;;;;;;;;;;1.62;45.04;94677.00;5087114;28;20034;-66
2022/11/19 05:43:42;;;;;;;;;;;;;;;1.53;45.33;94672.63;5087084;28;19983;-66
2022/11/19 05:46:07;;;;;;;;;;;;;;;1.33;46.05;94674.47;5087043;28;20003;-66
2022/11/19 05:48:32;;;;;;;;;;;;;;;1.26;45.90;94683.88;5087818;28;19983;-67
2022/11/19 05:50:58;;;;;;;;;;;;;;;1.17;45.67;94682.94;5086220;28;20000;-67
2022/11/19 05:53:23;;;;;;;;;;;;;;;1.29;47.10;94684.41;5088694;28;20441;-66
2022/11/19 05:55:48;;;;;;;;;;;;;;;1.13;49.87;94679.78;5087771;28;20050;-66
2022/11/19 05:58:13;;;;;;;;;;;;;;;1.33;50.21;94692.84;5086924;28;20035;-67
2022/11/19 06:00:39;;;;;;;;;;;;;;;1.14;48.66;94691.91;5087623;28;19972;-67
2022/11/19 06:03:04;;;;;;;;;;;;;;;1.24;49.40;94691.91;5087128;28;19988;-65
2022/11/19 06:05:30;;;;;;;;;;;;;;;1.37;48.03;94687.16;5088699;28;20452;-66
2022/11/19 06:07:55;;;;;;;;;;;;;;;1.47;48.18;94694.16;5087622;28;19976;-66
2022/11/19 06:10:20;;;;;;;;;;;;;;;1.46;50.71;94698.56;5070404;28;20343;-66
2022/11/19 06:12:46;;;;;;;;;;;;;;;1.45;49.95;94694.31;5087640;28;19996;-66
2022/11/19 06:15:11;;;;;;;;;;;;;;;1.23;51.00;94685.00;5086979;28;20001;-66
2022/11/19 06:17:36;;;;;;;;;;;;;;;1.21;46.56;94686.94;5083417;28;20012;-67
2022/11/19 06:20:02;;;;;;;;;;;;;;;1.27;47.97;94689.00;5087227;28;20617;-67
2022/11/19 06:22:27;;;;;;;;;;;;;;;1.08;44.18;94695.94;5087191;28;20000;-67
2022/11/19 06:24:52;;;;;;;;;;;;;;;1.09;51.25;94699.38;5087929;28;19984;-65
2022/11/19 06:27:17;;;;;;;;;;;;;;;1.31;50.19;94703.47;5087540;28;19988;-65
2022/11/19 06:29:42;;;;;;;;;;;;;;;1.39;48.84;94699.31;5085990;28;20426;-67
2022/11/19 06:32:08;;;;;;;;;;;;;;;1.13;47.25;94699.91;5085727;28;20485;-67
2022/11/19 06:34:33;;;;;;;;;;;;;;;1.28;48.71;94709.00;5088399;28;20070;-66
2022/11/19 06:36:58;;;;;;;;;;;;;;;1.23;45.73;94721.72;5086672;28;20039;-67
2022/11/19 06:39:24;;;;;;;;;;;;;;;1.16;48.77;94725.88;5086579;28;19978;-66
2022/11/19 06:41:49;;;;;;;;;;;;;;;1.31;49.47;94724.44;5085279;28;20006;-67
2022/11/19 06:44:14;;;;;;;;;;;;;;;1.48;48.80;94728.13;5087434;28;20312;-67
2022/11/19 06:46:40;;;;;;;;;;;;;;;1.50;46.66;94725.38;5086221;28;19975;-67
2022/11/19 06:49:06;;;;;;;;;;;;;;;1.44;50.50;94728.56;5087234;28;19967;-65
2022/11/19 06:51:31;;;;;;;;;;;;;;;1.35;48.65;94728.44;5086659;28;20059;-66
2022/11/19 06:53:56;;;;;;;;;;;;;;;1.45;49.23;94740.69;5087142;28;20484;-66
2022/11/19 06:56:21;;;;;;;;;;;;;;;1.29;48.55;94736.88;5086549;28;19960;-67
2022/11/19 06:58:47;;;;;;;;;;;;;;;1.34;52.63;94741.69;5086246;28;21461;-67
2022/11/19 07:01:13;;;;;;;;;;;;;;;1.39;49.55;94746.53;5086139;28;20023;-67
2022/11/19 07:03:39;;;;;;;;;;;;;;;1.50;48.64;94746.34;5087858;28;19981;-66
2022/11/19 07:06:04;;;;;;;;;;;;;;;1.28;50.29;94734.38;5085904;28;20036;-66
2022/11/19 07:08:33;;;;;;;;;;;;;;;1.31;51.04;94737.56;5087344;28;19973;-67
2022/11/19 07:10:58;;;;;;;;;;;;;;;1.26;49.85;94737.13;5086844;28;20295;-65
2022/11/19 07:13:23;;;;;;;;;;;;;;;1.28;48.86;94737.84;5085187;28;19950;-65
2022/11/19 07:15:48;;;;;;;;;;;;;;;1.33;48.10;94738.22;5087482;28;20258;-67
2022/11/19 07:18:14;;;;;;;;;;;;;;;1.36;49.63;94747.59;5085763;28;20044;-66
2022/11/19 07:20:39;;;;;;;;;;;;;;;1.35;48.71;94748.59;5087437;28;20460;-66
2022/11/19 07:23:08;;;;;;;;;;;;;;;1.49;50.27;94755.19;5086242;28;19970;-66
2022/11/19 07:25:33;;;;;;;;;;;;;;;1.29;49.69;94751.78;5069648;28;19965;-66
2022/11/19 07:27:58;;;;;;;;;;;;;;;1.14;48.13;94754.00;5086679;28;19935;-66
2022/11/19 07:30:24;;;;;;;;;;;;;;;1.33;46.91;94751.34;5084361;28;19948;-66
2022/11/19 07:32:49;;;;;;;;;;;;;;;1.40;46.37;94759.47;5086778;28;19934;-67
2022/11/19 07:35:14;;;;;;;;;;;;;;;1.37;50.02;94771.06;5067210;28;19966;-65
2022/11/19 07:37:39;;;;;;;;;;;;;;;1.16;46.17;94771.25;5085011;28;19965;-67
2022/11/19 07:40:05;;;;;;;;;;;;;;;1.22;46.34;94773.31;5085998;28;19963;-66
2022/11/19 07:42:48;;;;;;;;;;;;;;;0.98;47.10;94776.38;5082139;28;20048;-65
2022/11/19 07:45:14;;;;;;;;;;;;;;;0.93;46.65;94771.56;5086766;28;19941;-67
2022/11/19 07:47:39;;;;;;;;;;;;;;;1.08;46.02;94777.22;5087533;28;20467;-66
2022/11/19 07:50:05;;;;;;;;;;;;;;;0.98;50.54;94774.59;5087644;28;20383;-67
2022/11/19 07:52:30;;;;;;;;;;;;;;;0.86;46.67;94783.56;5086062;28;20060;-67
2022/11/19 07:54:55;;;;;;;;;;;;;;;0.90;49.13;94782.31;5086506;28;19955;-66
2022/11/19 07:57:20;;;;;;;;;;;;;;;0.64;50.67;94787.25;5085831;28;20057;-66
2022/11/19 07:59:46;;;;;;;;;;;;;;;0.90;47.69;94795.44;5086496;28;19928;-67
2022/11/19 08:02:11;;;;;;;;;;;;;;;0.72;47.66;94790.03;5082195;28;19990;-66
2022/11/19 08:04:36;;;;;;;;;;;;;;;0.70;47.78;94787.56;5086179;28;20452;-66
2022/11/19 08:07:02;;;;;;;;;;;;;;;0.89;49.79;94782.47;5084338;28;20354;-65
2022/11/19 08:09:27;;;;;;;;;;;;;;;1.00;48.27;94781.47;5085814;28;19924;-67
2022/11/19 08:11:52;;;;;;;;;;;;;;;1.00;48.03;94784.09;5088997;28;20418;-65
2022/11/19 08:14:17;;;;;;;;;;;;;;;1.10;47.53;94791.00;5087082;28;20333;-67
2022/11/19 08:19:26;;;;;;;;;;;;;;;1.36;51.59;94787.78;5085278;28;20372;-65
2022/11/19 08:21:51;;;;;;;;;;;;;;;1.24;47.19;94791.53;5080569;28;20369;-67
2022/11/19 08:24:17;;;;;;;;;;;;;;;1.39;47.81;94789.31;5086774;28;19958;-66
2022/11/19 08:26:42;;;;;;;;;;;;;;;1.67;47.40;94791.22;5083866;28;19920;-66
2022/11/19 08:29:08;;;;;;;;;;;;;;;1.72;48.61;94787.19;5083535;28;19986;-65
2022/11/19 08:31:33;;;;;;;;;;;;;;;1.71;47.41;94793.41;5083022;28;19951;-66
2022/11/19 08:34:00;;;;;;;;;;;;;;;1.93;47.35;94806.31;5084206;28;19954;-66
2022/11/19 08:36:25;;;;;;;;;;;;;;;1.95;47.44;94804.38;5087563;28;20531;-66
2022/11/19 08:38:50;;;;;;;;;;;;;;;2.10;46.61;94805.56;5084156;28;19928;-66
2022/11/19 08:44:00;;;;;;;;;;;;;;;2.15;48.25;94813.03;5085823;28;19970;-67
2022/11/19 08:46:25;;;;;;;;;;;;;;;2.20;46.62;94818.66;5082438;28;19920;-66
2022/11/19 08:48:50;;;;;;;;;;;;;;;2.36;46.39;94806.69;5081138;28;20507;-67
2022/11/19 08:51:16;;;;;;;;;;;;;;;2.53;48.66;94820.84;5084177;28;20014;-66
2022/11/19 08:53:41;;;;;;;;;;;;;;;2.36;46.79;94817.19;5086569;28;20005;-66
2022/11/19 08:56:06;;;;;;;;;;;;;;;2.33;47.30;94823.56;5083532;28;19924;-67
2022/11/19 08:58:31;;;;;;;;;;;;;;;2.41;49.68;94820.22;5085712;28;20526;-66
2022/11/19 09:00:57;;;;;;;;;;;;;;;2.26;44.35;94820.72;5084480;28;19973;-67
2022/11/19 09:03:22;;;;;;;;;;;;;;;2.43;45.38;94818.28;5081587;28;19920;-65
2022/11/19 09:05:47;;;;;;;;;;;;;;;2.06;54.77;94821.75;5063259;28;20034;-66
2022/11/19 09:08:12;;;;;;;;;;;;;;;2.02;46.45;94821.22;5080280;28;19958;-67
2022/11/19 09:10:38;;;;;;;;;;;;;;;1.96;43.56;94825.25;5079679;28;20019;-67
2022/11/19 09:13:03;;;;;;;;;;;;;;;1.99;44.09;94818.88;5083861;28;20368;-66
2022/11/19 09:15:29;;;;;;;;;;;;;;;2.01;44.87;94823.00;5086854;28;20351;-66
2022/11/19 09:17:54;;;;;;;;;;;;;;;2.19;44.90;94822.25;5087241;28;20361;-67
2022/11/19 09:20:19;;;;;;;;;;;;;;;2.28;47.12;94820.53;5087602;28;19927;-67
2022/11/19 09:22:44;;;;;;;;;;;;;;;2.36;44.19;94817.19;5084811;28;20059;-65
2022/11/19 09:25:09;;;;;;;;;;;;;;;2.22;44.79;94823.75;5088115;28;19996;-67
2022/11/19 09:27:35;;;;;;;;;;;;;;;2.26;43.60;94822.50;5086381;28;19916;-66
2022/11/19 09:30:00;;;;;;;;;;;;;;;2.56;47.07;94833.69;5082959;28;20390;-66
2022/11/19 09:32:26;;;;;;;;;;;;;;;2.74;42.42;94833.72;5085838;28;19928;-67
2022/11/19 09:34:51;;;;;;;;;;;;;;;2.72;47.27;94829.59;5086617;28;20326;-67
2022/11/19 09:37:17;;;;;;;;;;;;;;;2.84;43.77;94838.09;5087080;28;19940;-66
2022/11/19 09:39:42;;;;;;;;;;;;;;;2.89;43.10;94839.28;5091409;28;19958;-66
2022/11/19 09:42:26;;;;;;;;;;;;;;;2.73;43.07;94837.31;5089731;28;20014;-66
2022/11/19 09:44:54;;;;;;;;;;;;;;;2.97;46.30;94845.59;5067606;28;20011;-66
2022/11/19 09:47:19;;;;;;;;;;;;;;;2.78;42.26;94844.75;5087822;28;20015;-67
2022/11/19 09:49:45;;;;;;;;;;;;;;;2.93;44.73;94850.34;5087262;28;19999;-66
2022/11/19 09:52:13;;;;;;;;;;;;;;;3.19;43.55;94844.34;5089319;28;19920;-66
2022/11/19 09:54:42;;;;;;;;;;;;;;;3.34;40.94;94860.44;5089385;28;20332;-67
2022/11/19 09:57:08;;;;;;;;;;;;;;;3.20;42.07;94861.75;5068961;28;19961;-66
2022/11/19 09:59:38;;;;;;;;;;;;;;;3.02;40.81;94859.13;5086693;28;19928;-67
2022/11/19 10:02:11;;;;;;;;;;;;;;;3.20;40.25;94858.31;5089868;28;19916;-66
2022/11/19 10:04:37;;;;;;;;;;;;;;;3.05;42.25;94856.22;5070112;28;20015;-66
2022/11/19 10:07:05;;;;;;;;;;;;;;;2.98;40.06;94850.72;5086971;28;19999;-65
2022/11/19 10:09:45;;;;;;;;;;;;;;;2.89;41.81;94857.69;5089794;28;20520;-66
2022/11/19 10:12:11;;;;;;;;;;;;;;;3.13;40.84;94861.53;5087850;28;19930;-67
2022/11/19 10:14:39;;;;;;;;;;;;;;;3.10;41.21;94867.09;5090066;28;19924;-67
2022/11/19 10:17:19;;;;;;;;;;;;;;;3.01;44.73;94866.22;5089198;28;20438;-66
2022/11/19 10:19:53;;;;;;;;;;;;;;;3.09;41.79;94869.91;5086831;28;19985;-67
2022/11/19 10:22:22;;;;;;;;;;;;;;;2.97;42.86;94866.66;5085197;28;20223;-66
2022/11/19 10:24:51;;;;;;;;;;;;;;;2.94;43.94;94867.78;5089143;28;19923;-67
2022/11/19 10:27:22;;;;;;;;;;;;;;;3.00;46.54;94863.72;5087385;28;20133;-67
2022/11/19 10:29:49;;;;;;;;;;;;;;;2.98;43.98;94863.03;5085411;28;20401;-67
2022/11/19 10:32:22;;;;;;;;;;;;;;;3.20;42.41;94871.47;5068813;28;19912;-67
2022/11/19 10:34:47;;;;;;;;;;;;;;;3.20;40.86;94867.03;5067137;28;19962;-68
2022/11/19 10:37:14;;;;;;;;;;;;;;;3.12;40.04;94864.31;5070503;28;19947;-67
2022/11/19 10:39:42;;;;;;;;;;;;;;;3.28;39.86;94868.91;5087174;28;19920;-66
2022/11/19 10:42:08;;;;;;;;;;;;;;;3.45;41.03;94863.81;5067764;28;20509;-66
2022/11/19 10:44:49;;;;;;;;;;;;;;;3.50;40.97;94862.38;5082384;28;20010;-66
2022/11/19 10:47:21;;;;;;;;;;;;;;;3.42;42.47;94871.03;5084508;28;19954;-66
2022/11/19 10:49:50;;;;;;;;;;;;;;;3.16;42.54;94877.03;5087437;28;19954;-66
2022/11/19 10:52:22;;;;;;;;;;;;;;;3.41;46.78;94877.25;5083591;28;19953;-65
2022/11/19 10:54:47;;;;;;;;;;;;;;;3.44;46.75;94865.63;5070689;28;20233;-66
2022/11/19 10:57:14;;;;;;;;;;;;;;;3.34;43.67;94865.69;5087658;28;20304;-67
2022/11/19 10:59:39;;;;;;;;;;;;;;;3.34;42.14;94868.31;5066636;28;19922;-66
2022/11/19 11:02:15;;;;;;;;;;;;;;;3.32;43.79;94861.53;5065248;28;19954;-67
2022/11/19 11:04:57;;;;;;;;;;;;;;;3.41;44.84;94864.09;5090279;28;20379;-66
2022/11/19 11:07:22;;;;;;;;;;;;;;;3.43;43.74;94862.16;5069439;28;19968;-67
2022/11/19 11:09:48;;;;;;;;;;;;;;;3.29;41.92;94857.41;5067731;28;19919;-66
2022/11/19 11:15:20;;;;;;;;;;;;;;;3.36;46.75;94855.84;5087095;28;20449;-66
2022/11/19 11:17:46;;;;;;;;;;;;;;;3.30;41.62;94864.31;5085025;28;19920;-66
2022/11/19 11:20:17;;;;;;;;;;;;;;;3.33;42.97;94857.94;5085410;28;20601;-65
2022/11/19 11:22:47;;;;;;;;;;;;;;;3.34;41.89;94849.91;5082117;28;20611;-67
2022/11/19 11:25:25;;;;;;;;;;;;;;;3.17;40.16;94856.81;5084611;28;19946;-67
2022/11/19 11:28:09;;;;;;;;;;;;;;;3.04;42.18;94858.00;5071501;28;20347;-67
2022/11/19 11:30:34;;;;;;;;;;;;;;;3.04;40.95;94858.00;5082682;28;19928;-66
2022/11/19 11:33:18;;;;;;;;;;;;;;;3.02;41.66;94854.72;5088097;28;19946;-65
2022/11/19 11:35:44;;;;;;;;;;;;;;;3.02;43.86;94862.59;5090032;28;19958;-66
2022/11/19 11:38:09;;;;;;;;;;;;;;;3.11;42.10;94860.88;5087452;28;20395;-65
2022/11/19 11:40:34;;;;;;;;;;;;;;;3.26;42.19;94861.16;5087155;28;20057;-65
2022/11/19 11:42:59;;;;;;;;;;;;;;;3.08;43.25;94858.53;5083968;28;20144;-67
2022/11/19 11:45:31;;;;;;;;;;;;;;;3.11;43.08;94858.25;5081389;28;19963;-65
2022/11/19 11:47:57;;;;;;;;;;;;;;;3.17;43.66;94847.09;5070482;28;19912;-67
2022/11/19 11:50:23;;;;;;;;;;;;;;;3.05;42.48;94850.94;5069431;28;19954;-65
2022/11/19 11:52:50;;;;;;;;;;;;;;;3.25;41.21;94850.78;5068892;28;19954;-65
2022/11/19 11:55:24;;;;;;;;;;;;;;;3.35;46.73;94850.72;5085422;28;19922;-65
2022/11/19 11:57:50;;;;;;;;;;;;;;;3.42;46.06;94859.66;5085254;28;20028;-66
2022/11/19 12:00:34;;;;;;;;;;;;;;;3.68;45.97;94867.63;5084465;28;20190;-66
2022/11/19 12:03:00;;;;;;;;;;;;;;;3.84;45.53;94868.72;5089226;28;20307;-67
2022/11/19 12:05:25;;;;;;;;;;;;;;;3.65;43.05;94870.59;5085353;28;19958;-67
2022/11/19 12:07:57;;;;;;;;;;;;;;;3.93;41.93;94862.53;5068530;28;19943;-65
2022/11/19 12:10:30;;;;;;;;;;;;;;;4.05;42.68;94865.72;5064196;28;20573;-65
2022/11/19 12:12:59;;;;;;;;;;;;;;;3.90;42.87;94860.22;5087129;28;19946;-67
2022/11/19 12:15:43;;;;;;;;;;;;;;;3.93;40.36;94854.66;5069166;28;20008;-67
2022/11/19 12:18:11;;;;;;;;;;;;;;;3.79;40.47;94861.31;5083615;28;20078;-65
2022/11/19 12:20:38;;;;;;;;;;;;;;;3.83;41.43;94861.81;5066552;28;20409;-66
2022/11/19 12:23:06;;;;;;;;;;;;;;;3.92;40.01;94865.34;5085909;28;19934;-65
2022/11/19 12:25:50;;;;;;;;;;;;;;;3.83;44.74;94859.19;5084741;28;20002;-67
2022/11/19 12:28:34;;;;;;;;;;;;;;;3.84;42.30;94854.75;5087639;28;19923;-66
2022/11/19 12:31:03;;;;;;;;;;;;;;;3.75;42.06;94859.97;5084723;28;20545;-67
2022/11/19 12:33:47;;;;;;;;;;;;;;;3.64;42.16;94866.28;5066161;28;20471;-66
2022/11/19 12:36:17;;;;;;;;;;;;;;;3.80;41.54;94856.84;5082591;28;20367;-66
2022/11/19 12:39:00;;;;;;;;;;;;;;;3.91;41.99;94859.22;5084301;28;19931;-67
2022/11/19 12:41:30;;;;;;;;;;;;;;;3.87;39.51;94852.63;5066433;28;19919;-66
2022/11/19 12:43:56;;;;;;;;;;;;;;;3.90;40.90;94857.59;5069118;28;19920;-65
2022/11/19 12:46:24;;;;;;;;;;;;;;;3.90;43.46;94860.22;5065415;28;20003;-65
2022/11/19 12:48:53;;;;;;;;;;;;;;;3.91;40.20;94856.59;5089372;28;19923;-66
2022/11/19 12:51:27;;;;;;;;;;;;;;;3.72;43.48;94859.44;5070389;28;19947;-67
2022/11/19 12:54:12;;;;;;;;;;;;;;;3.62;42.87;94855.09;5089061;28;19920;-66
2022/11/19 12:56:40;;;;;;;;;;;;;;;3.61;41.98;94853.41;5090550;28;19965;-66
2022/11/19 12:59:17;;;;;;;;;;;;;;;3.65;42.25;94857.41;5083478;28;20402;-65
2022/11/19 13:01:43;;;;;;;;;;;;;;;3.48;40.25;94856.47;5087098;28;20400;-65
2022/11/19 13:04:28;;;;;;;;;;;;;;;3.64;41.46;94847.84;5070390;28;19924;-65
2022/11/19 13:07:11;;;;;;;;;;;;;;;3.75;42.75;94848.59;5086336;28;20669;-67
2022/11/19 13:09:36;;;;;;;;;;;;;;;3.60;41.39;94849.13;5089402;28;19947;-65
2022/11/19 13:12:03;;;;;;;;;;;;;;;3.58;40.74;94850.28;5086189;28;20644;-66
2022/11/19 13:14:31;;;;;;;;;;;;;;;3.65;41.31;94854.78;5086979;28;19959;-67
2022/11/19 13:16:56;;;;;;;;;;;;;;;3.56;40.92;94847.78;5088243;28;19950;-66
2022/11/19 13:19:31;;;;;;;;;;;;;;;3.56;43.93;94855.69;5069809;28;20015;-66
2022/11/19 13:22:09;;;;;;;;;;;;;;;3.60;45.88;94850.97;5070530;28;19958;-65
2022/11/19 13:24:46;;;;;;;;;;;;;;;3.86;45.79;94845.72;5085220;28;20533;-66
2022/11/19 13:27:16;;;;;;;;;;;;;;;3.89;41.45;94845.41;5086922;28;19962;-65